Time;durP1;ratioP1;P1;durP2;ratioP2;P2;SDS_P1;SDS_P2;PMS_P1;PMS_P2;Temp;Humidity;BMP_temperature;BMP_pressure;BME280_temperature;BME280_humidity;BME280_pressure;Samples;Min_cycle;Max_cycle;Signal;HPM_P1;HPM_P2
2023/01/28 00:00:00;;;;;;;4.43;2.75;;;5.20;99.90;;;;;;6218515;23;20008;-77
2023/01/28 00:02:26;;;;;;;3.92;2.42;;;5.20;99.90;;;;;;6220208;23;20068;-77
2023/01/28 00:04:51;;;;;;;3.00;2.38;;;5.20;99.90;;;;;;6220192;23;20027;-76
2023/01/28 00:07:18;;;;;;;3.67;2.30;;;5.20;99.90;;;;;;6220413;23;20025;-76
2023/01/28 00:09:43;;;;;;;4.18;2.55;;;5.10;99.90;;;;;;6219038;23;20004;-77
2023/01/28 00:12:09;;;;;;;6.22;2.47;;;5.10;99.90;;;;;;6220785;23;20007;-76
2023/01/28 00:14:35;;;;;;;4.28;2.45;;;5.10;99.90;;;;;;6220289;23;20337;-76
2023/01/28 00:17:03;;;;;;;3.28;2.50;;;5.10;99.90;;;;;;6220272;23;20359;-77
2023/01/28 00:19:29;;;;;;;3.78;2.35;;;5.10;99.90;;;;;;6220359;23;20000;-76
2023/01/28 00:21:54;;;;;;;3.55;2.42;;;5.10;99.90;;;;;;6218833;23;20345;-76
2023/01/28 00:24:20;;;;;;;3.25;2.20;;;5.20;99.90;;;;;;6220370;23;20473;-76
2023/01/28 00:26:45;;;;;;;3.45;2.53;;;5.10;99.90;;;;;;6220216;23;20032;-75
2023/01/28 00:29:11;;;;;;;4.65;2.22;;;5.10;99.90;;;;;;6220346;23;20020;-76
2023/01/28 00:31:37;;;;;;;3.45;2.35;;;5.10;99.90;;;;;;6220407;23;20001;-76
2023/01/28 00:34:02;;;;;;;3.67;2.40;;;5.20;99.90;;;;;;6218529;23;20008;-76
2023/01/28 00:36:28;;;;;;;4.65;2.45;;;5.20;99.90;;;;;;6218951;23;20088;-76
2023/01/28 00:38:56;;;;;;;3.72;2.00;;;5.20;99.90;;;;;;6220191;23;20031;-76
2023/01/28 00:41:25;;;;;;;2.80;2.00;;;5.20;99.90;;;;;;6220353;23;20008;-76
2023/01/28 00:43:51;;;;;;;2.92;2.40;;;5.20;99.90;;;;;;6218382;23;20015;-76
2023/01/28 00:46:18;;;;;;;3.60;2.67;;;5.20;99.90;;;;;;6221045;23;20007;-76
2023/01/28 00:48:44;;;;;;;4.18;2.40;;;5.20;99.90;;;;;;6220226;23;20027;-76
2023/01/28 00:51:12;;;;;;;3.75;2.40;;;5.20;99.90;;;;;;6220553;23;20012;-76
2023/01/28 00:53:39;;;;;;;3.83;2.35;;;5.20;99.90;;;;;;6222207;23;20005;-76
2023/01/28 00:56:06;;;;;;;3.35;2.20;;;5.30;99.90;;;;;;6221984;23;20009;-76
2023/01/28 00:58:33;;;;;;;3.60;2.53;;;5.30;99.90;;;;;;6222507;23;20055;-76
2023/01/28 01:01:16;;;;;;;3.05;1.90;;;5.30;99.90;;;;;;6222061;23;20000;-76
2023/01/28 01:03:42;;;;;;;4.20;2.38;;;5.30;99.90;;;;;;6220152;23;20071;-76
2023/01/28 01:06:10;;;;;;;3.05;1.67;;;5.30;99.90;;;;;;6222304;23;19996;-76
2023/01/28 01:08:38;;;;;;;2.80;1.95;;;5.30;99.90;;;;;;6220206;23;20040;-76
2023/01/28 01:11:06;;;;;;;3.33;1.95;;;5.30;99.90;;;;;;6221912;23;20334;-76
2023/01/28 01:13:33;;;;;;;3.63;2.10;;;5.30;99.90;;;;;;6222002;23;20000;-76
2023/01/28 01:16:08;;;;;;;4.43;2.30;;;5.30;99.90;;;;;;6221896;23;20031;-76
2023/01/28 01:18:35;;;;;;;2.47;1.85;;;5.30;99.90;;;;;;6221747;23;20485;-76
2023/01/28 01:21:01;;;;;;;3.05;2.15;;;5.30;99.90;;;;;;6222061;23;20015;-76
2023/01/28 01:23:29;;;;;;;3.28;2.28;;;5.30;99.90;;;;;;6221886;23;20003;-76
2023/01/28 01:25:54;;;;;;;4.47;2.08;;;5.30;99.90;;;;;;6221953;23;20007;-76
2023/01/28 01:28:21;;;;;;;3.40;2.10;;;5.40;99.90;;;;;;6221898;23;20028;-76
2023/01/28 01:30:48;;;;;;;3.13;1.90;;;5.40;99.90;;;;;;6221885;23;20005;-76
2023/01/28 01:33:14;;;;;;;6.55;2.20;;;5.40;99.90;;;;;;6221537;23;20001;-75
2023/01/28 01:35:40;;;;;;;2.42;1.88;;;5.40;99.90;;;;;;6221493;23;20005;-76
2023/01/28 01:38:06;;;;;;;3.97;2.08;;;5.40;99.90;;;;;;6221679;23;20040;-76
2023/01/28 01:40:32;;;;;;;3.25;1.75;;;5.30;99.90;;;;;;6221599;23;20009;-76
2023/01/28 01:42:57;;;;;;;2.92;2.00;;;5.30;99.90;;;;;;6221792;23;20004;-76
2023/01/28 01:45:24;;;;;;;2.58;1.70;;;5.30;99.90;;;;;;6221407;23;20000;-76
2023/01/28 01:47:58;;;;;;;2.92;1.90;;;5.30;99.90;;;;;;6219811;23;20031;-76
2023/01/28 01:50:30;;;;;;;4.00;2.03;;;5.30;99.90;;;;;;6221215;23;20001;-76
2023/01/28 01:53:13;;;;;;;3.45;1.85;;;5.30;99.90;;;;;;6221695;23;20015;-76
2023/01/28 01:55:42;;;;;;;3.33;1.60;;;5.40;99.90;;;;;;6221677;23;20005;-76
2023/01/28 01:58:12;;;;;;;2.78;1.80;;;5.40;99.90;;;;;;6221239;23;20004;-76
2023/01/28 02:00:40;;;;;;;2.45;1.75;;;5.30;99.90;;;;;;6221785;23;20027;-76
2023/01/28 02:03:06;;;;;;;2.85;1.90;;;5.40;99.90;;;;;;6220089;23;20374;-76
2023/01/28 02:05:32;;;;;;;2.63;1.30;;;5.40;99.90;;;;;;6219945;23;20010;-76
2023/01/28 02:10:43;;;;;;;2.25;1.50;;;5.30;99.90;;;;;;6221389;23;20015;-76
2023/01/28 02:13:09;;;;;;;2.28;1.40;;;5.30;99.90;;;;;;6221268;23;20405;-76
2023/01/28 02:15:35;;;;;;;2.67;1.45;;;5.30;99.90;;;;;;6221439;23;20004;-76
2023/01/28 02:18:01;;;;;;;2.05;1.25;;;5.30;99.90;;;;;;6221266;23;20024;-76
2023/01/28 02:20:39;;;;;;;2.67;1.40;;;5.30;99.90;;;;;;6220888;23;20005;-76
2023/01/28 02:23:44;;;;;;;4.45;1.58;;;5.20;99.90;;;;;;6221566;23;20004;-76
2023/01/28 02:26:31;;;;;;;1.88;1.00;;;5.30;99.90;;;;;;6221332;23;20446;-75
2023/01/28 02:29:18;;;;;;;2.35;1.40;;;5.30;99.90;;;;;;6221709;23;20314;-75
2023/01/28 02:31:54;;;;;;;2.60;1.48;;;5.30;99.90;;;;;;6219532;23;20005;-76
2023/01/28 02:34:40;;;;;;;2.53;1.30;;;5.30;99.90;;;;;;6220951;23;20457;-76
2023/01/28 02:37:24;;;;;;;2.55;1.10;;;5.30;99.90;;;;;;6219641;23;20012;-76
2023/01/28 02:39:58;;;;;;;;;;;5.30;99.90;;;;;;6220122;23;20016;-76
2023/01/28 02:42:32;;;;;;;1.23;0.90;;;5.30;99.90;;;;;;6221100;23;19908;-75
2023/01/28 02:44:58;;;;;;;2.70;1.20;;;5.30;99.90;;;;;;6221081;23;20001;-76
2023/01/28 02:50:13;;;;;;;2.22;1.10;;;5.30;99.90;;;;;;6220559;23;20465;-76
2023/01/28 02:56:07;;;;;;;2.58;1.17;;;5.30;99.90;;;;;;6220861;23;20015;-77
2023/01/28 02:58:43;;;;;;;4.32;1.17;;;5.30;99.90;;;;;;6221338;23;20004;-77
2023/01/28 03:01:14;;;;;;;1.60;1.00;;;5.20;99.90;;;;;;6220912;23;20000;-77
2023/01/28 03:04:00;;;;;;;2.03;1.00;;;5.30;99.90;;;;;;6220518;23;20024;-76
2023/01/28 03:06:38;;;;;;;2.25;0.80;;;5.20;99.90;;;;;;6219304;23;19997;-75
2023/01/28 03:09:21;;;;;;;3.00;0.93;;;5.20;99.90;;;;;;6220412;23;20004;-75
2023/01/28 03:37:34;;;;;;;2.22;1.38;;;5.10;99.90;;;;;;6220398;23;20027;-76
2023/01/28 03:40:07;;;;;;;2.00;1.30;;;5.10;99.90;;;;;;6220714;23;20005;-75
2023/01/28 03:42:33;;;;;;;1.50;1.27;;;5.00;99.90;;;;;;6220973;23;19996;-75
2023/01/28 03:45:02;;;;;;;1.38;1.08;;;5.00;99.90;;;;;;6218652;23;20021;-75
2023/01/28 03:47:30;;;;;;;2.15;1.65;;;5.00;99.90;;;;;;6219110;23;20004;-75
2023/01/28 03:49:58;;;;;;;1.63;1.10;;;5.00;99.90;;;;;;6218502;23;20349;-75
2023/01/28 03:52:31;;;;;;;3.42;1.52;;;4.90;99.90;;;;;;6218961;23;20004;-75
2023/01/28 03:54:57;;;;;;;2.85;1.30;;;4.90;99.90;;;;;;6220684;23;20002;-76
2023/01/28 03:57:25;;;;;;;2.00;1.40;;;4.90;99.90;;;;;;6218630;23;20035;-77
2023/01/28 03:59:52;;;;;;;2.03;1.40;;;4.90;99.90;;;;;;6220610;23;20417;-77
2023/01/28 04:02:20;;;;;;;2.50;1.50;;;4.90;99.90;;;;;;6219017;23;20009;-77
2023/01/28 04:04:46;;;;;;;2.15;1.45;;;4.90;99.90;;;;;;6220363;23;20008;-77
2023/01/28 04:07:15;;;;;;;1.85;1.48;;;4.80;99.90;;;;;;6220502;23;20001;-75
2023/01/28 04:09:42;;;;;;;2.35;1.40;;;4.80;99.90;;;;;;6220331;23;20003;-75
2023/01/28 04:12:08;;;;;;;3.50;1.52;;;4.80;99.90;;;;;;6220483;23;20005;-75
2023/01/28 04:14:34;;;;;;;1.85;1.55;;;4.80;99.90;;;;;;6220454;23;20090;-75
2023/01/28 04:17:00;;;;;;;2.08;1.33;;;4.90;99.90;;;;;;6220333;23;20520;-75
2023/01/28 04:19:27;;;;;;;2.88;1.58;;;4.90;99.90;;;;;;6220241;23;20009;-76
2023/01/28 04:21:53;;;;;;;2.83;1.75;;;4.90;99.90;;;;;;6220920;23;20031;-75
2023/01/28 04:24:20;;;;;;;2.55;1.50;;;4.90;99.90;;;;;;6220892;23;20032;-74
2023/01/28 04:26:46;;;;;;;2.92;1.73;;;4.90;99.90;;;;;;6222388;23;20433;-74
2023/01/28 04:29:12;;;;;;;2.08;1.35;;;4.90;99.90;;;;;;6222423;23;20102;-75
2023/01/28 04:31:37;;;;;;;1.88;1.50;;;4.90;99.90;;;;;;6222174;23;20012;-76
2023/01/28 04:34:03;;;;;;;3.10;1.42;;;4.80;99.90;;;;;;6222089;23;20005;-75
2023/01/28 04:36:29;;;;;;;2.17;1.55;;;4.80;99.90;;;;;;6222381;23;20004;-75
2023/01/28 04:38:54;;;;;;;4.40;1.52;;;4.80;99.90;;;;;;6222405;23;20072;-76
2023/01/28 04:41:20;;;;;;;2.63;1.35;;;4.90;99.90;;;;;;6222167;23;20008;-76
2023/01/28 04:43:48;;;;;;;1.77;1.40;;;4.90;99.90;;;;;;6222259;23;20004;-76
2023/01/28 04:46:14;;;;;;;1.90;1.48;;;4.80;99.90;;;;;;6222017;23;20000;-76
2023/01/28 04:48:39;;;;;;;1.73;1.30;;;4.80;99.90;;;;;;6221938;23;20071;-76
2023/01/28 04:51:06;;;;;;;2.47;1.63;;;4.80;99.90;;;;;;6220490;23;20015;-76
2023/01/28 04:53:32;;;;;;;2.45;1.65;;;4.90;99.90;;;;;;6220412;23;20008;-75
2023/01/28 04:55:58;;;;;;;2.38;1.58;;;4.90;99.90;;;;;;6222191;23;20076;-75
2023/01/28 04:58:24;;;;;;;1.88;1.50;;;4.80;99.90;;;;;;6220658;23;20005;-75
2023/01/28 05:00:57;;;;;;;2.10;1.52;;;4.80;99.90;;;;;;6221959;23;20005;-76
2023/01/28 05:03:24;;;;;;;1.77;1.60;;;4.80;99.90;;;;;;6221917;23;19997;-75
2023/01/28 05:05:50;;;;;;;2.97;1.80;;;4.80;99.90;;;;;;6222081;23;19997;-75
2023/01/28 05:08:16;;;;;;;2.25;1.70;;;4.70;99.90;;;;;;6221960;23;19996;-75
2023/01/28 05:10:42;;;;;;;1.60;1.33;;;4.70;99.90;;;;;;6222038;23;20058;-75
2023/01/28 05:13:08;;;;;;;2.17;1.60;;;4.70;99.90;;;;;;6221993;23;20000;-74
2023/01/28 05:15:34;;;;;;;2.47;2.08;;;4.70;99.90;;;;;;6222325;23;20439;-75
2023/01/28 05:17:59;;;;;;;1.38;1.25;;;4.70;99.90;;;;;;6221751;23;20004;-75
2023/01/28 05:20:25;;;;;;;2.13;1.55;;;4.60;99.90;;;;;;6221543;23;20051;-75
2023/01/28 05:22:53;;;;;;;1.83;1.20;;;4.60;99.90;;;;;;6221853;23;20008;-76
2023/01/28 05:25:19;;;;;;;1.50;1.15;;;4.60;99.90;;;;;;6220583;23;20004;-75
2023/01/28 05:27:50;;;;;;;2.60;1.63;;;4.60;99.90;;;;;;6220158;23;20422;-75
2023/01/28 05:30:17;;;;;;;1.65;1.50;;;4.50;99.90;;;;;;6219994;23;20024;-76
2023/01/28 05:32:42;;;;;;;1.83;1.48;;;4.50;99.90;;;;;;6219290;23;20056;-75
2023/01/28 05:35:08;;;;;;;1.83;1.33;;;4.40;99.90;;;;;;6221521;23;20357;-76
2023/01/28 05:37:34;;;;;;;1.83;1.38;;;4.40;99.90;;;;;;6221638;23;20415;-76
2023/01/28 05:39:59;;;;;;;1.92;1.55;;;4.30;99.90;;;;;;6219859;23;20088;-76
2023/01/28 05:42:25;;;;;;;2.53;1.55;;;4.30;99.90;;;;;;6220145;23;20544;-76
2023/01/28 05:44:51;;;;;;;2.45;1.80;;;4.30;99.90;;;;;;6221659;23;20079;-76
2023/01/28 05:47:16;;;;;;;2.40;2.13;;;4.30;99.90;;;;;;6219961;23;20004;-76
2023/01/28 05:49:42;;;;;;;2.20;1.48;;;4.20;99.90;;;;;;6221336;23;20079;-77
2023/01/28 05:52:08;;;;;;;2.78;1.80;;;4.20;99.90;;;;;;6220319;23;20434;-76
2023/01/28 05:54:33;;;;;;;2.47;1.55;;;4.30;99.90;;;;;;6219797;23;20009;-76
2023/01/28 05:56:59;;;;;;;2.95;1.48;;;4.20;99.90;;;;;;6220374;23;20083;-77
2023/01/28 05:59:25;;;;;;;1.67;1.30;;;4.20;99.90;;;;;;6220182;23;20001;-77
2023/01/28 06:01:50;;;;;;;2.85;1.90;;;4.20;99.90;;;;;;6219940;23;20078;-76
2023/01/28 06:04:17;;;;;;;2.15;1.55;;;4.20;99.90;;;;;;6221299;23;20005;-76
2023/01/28 06:06:44;;;;;;;2.53;1.80;;;4.20;99.90;;;;;;6220382;23;20000;-76
2023/01/28 06:09:09;;;;;;;2.60;1.85;;;4.10;99.90;;;;;;6221508;23;19996;-76
2023/01/28 06:11:35;;;;;;;2.88;1.67;;;4.20;99.90;;;;;;6221549;23;20027;-76
2023/01/28 06:14:00;;;;;;;2.33;1.60;;;4.20;99.90;;;;;;6221458;23;20485;-76
2023/01/28 06:16:26;;;;;;;3.95;1.90;;;4.20;99.90;;;;;;6220025;23;20310;-76
2023/01/28 06:18:52;;;;;;;3.13;1.85;;;4.10;99.90;;;;;;6219667;23;20456;-76
2023/01/28 06:21:17;;;;;;;2.90;1.88;;;4.20;99.90;;;;;;6220985;23;20000;-76
2023/01/28 06:23:43;;;;;;;2.17;1.63;;;4.20;99.90;;;;;;6220102;23;20008;-76
2023/01/28 06:26:09;;;;;;;3.03;1.70;;;4.10;99.90;;;;;;6221289;23;20725;-75
2023/01/28 06:28:34;;;;;;;2.20;1.85;;;4.10;99.90;;;;;;6219353;23;20000;-75
2023/01/28 06:31:00;;;;;;;2.60;2.10;;;4.00;99.90;;;;;;6221175;23;20009;-75
2023/01/28 06:33:27;;;;;;;2.05;1.60;;;4.10;99.90;;;;;;6221006;23;20079;-76
2023/01/28 06:35:53;;;;;;;2.85;1.70;;;4.00;99.90;;;;;;6221109;23;20393;-76
2023/01/28 06:38:19;;;;;;;2.38;1.92;;;3.90;99.90;;;;;;6221171;23;20008;-76
2023/01/28 06:40:50;;;;;;;2.70;1.85;;;3.90;99.90;;;;;;6221095;23;20012;-76
2023/01/28 06:43:17;;;;;;;3.42;2.10;;;3.90;99.90;;;;;;6221395;23;20023;-76
2023/01/28 06:45:42;;;;;;;4.40;2.08;;;4.00;99.90;;;;;;6220920;23;20012;-76
2023/01/28 06:48:08;;;;;;;3.55;2.33;;;4.00;99.90;;;;;;6220874;23;20075;-75
2023/01/28 06:50:33;;;;;;;2.45;1.80;;;4.00;99.90;;;;;;6220644;23;20000;-76
2023/01/28 06:52:59;;;;;;;2.38;1.88;;;3.90;99.90;;;;;;6219432;23;20004;-75
2023/01/28 06:55:25;;;;;;;2.85;2.20;;;3.90;99.90;;;;;;6219556;23;20008;-76
2023/01/28 06:57:50;;;;;;;2.42;1.73;;;3.90;99.90;;;;;;6220767;23;20000;-75
2023/01/28 07:00:17;;;;;;;4.22;2.00;;;3.80;99.90;;;;;;6219000;23;20008;-76
2023/01/28 07:02:42;;;;;;;4.07;2.30;;;3.80;99.90;;;;;;6221100;23;20002;-75
2023/01/28 07:05:08;;;;;;;2.85;2.08;;;3.80;99.90;;;;;;6220687;23;20007;-76
2023/01/28 07:07:34;;;;;;;2.47;1.75;;;3.70;99.90;;;;;;6220807;23;20319;-76
2023/01/28 07:10:00;;;;;;;3.30;2.17;;;3.70;99.90;;;;;;6221035;23;20004;-76
2023/01/28 07:12:25;;;;;;;3.08;2.20;;;3.70;99.90;;;;;;6220824;23;20442;-77
2023/01/28 07:14:51;;;;;;;4.47;2.38;;;3.70;99.90;;;;;;6220914;23;20430;-76
2023/01/28 07:17:16;;;;;;;3.00;2.28;;;3.70;99.90;;;;;;6220715;23;20369;-76
2023/01/28 07:19:42;;;;;;;3.30;2.47;;;3.70;99.90;;;;;;6220628;23;20005;-76
2023/01/28 07:22:08;;;;;;;2.15;1.92;;;3.80;99.90;;;;;;6220361;23;20076;-77
2023/01/28 07:24:34;;;;;;;2.70;2.00;;;3.90;99.90;;;;;;6220833;23;20001;-76
2023/01/28 07:26:59;;;;;;;4.80;2.28;;;3.90;99.90;;;;;;6219404;23;20000;-76
2023/01/28 07:29:25;;;;;;;4.28;2.10;;;3.90;99.90;;;;;;6218756;23;20099;-77
2023/01/28 07:31:51;;;;;;;3.17;2.45;;;3.90;99.90;;;;;;6218958;23;20008;-77
2023/01/28 07:34:16;;;;;;;3.15;2.22;;;4.00;99.90;;;;;;6220247;23;20006;-76
2023/01/28 07:36:42;;;;;;;3.53;2.15;;;4.00;99.90;;;;;;6220549;23;20450;-76
2023/01/28 07:39:07;;;;;;;3.72;2.80;;;4.00;99.90;;;;;;6220662;23;20004;-76
2023/01/28 07:41:33;;;;;;;3.13;2.17;;;4.00;99.90;;;;;;6220582;23;20028;-76
2023/01/28 07:43:59;;;;;;;3.08;2.30;;;4.00;99.90;;;;;;6220458;23;20035;-76
2023/01/28 07:46:24;;;;;;;3.17;2.55;;;4.00;99.90;;;;;;6220302;23;20001;-76
2023/01/28 07:48:50;;;;;;;4.80;2.67;;;4.00;99.90;;;;;;6220110;23;19996;-76
2023/01/28 07:51:16;;;;;;;4.28;2.50;;;3.90;99.90;;;;;;6220483;23;20027;-76
2023/01/28 07:53:42;;;;;;;2.90;2.30;;;3.90;99.90;;;;;;6218938;23;20013;-76
2023/01/28 07:56:07;;;;;;;4.07;2.55;;;4.00;99.90;;;;;;6219952;23;20430;-76
2023/01/28 07:58:35;;;;;;;3.65;2.30;;;4.00;99.90;;;;;;6220393;23;20043;-75
2023/01/28 08:01:02;;;;;;;3.17;2.42;;;4.00;99.90;;;;;;6220431;23;20059;-76
2023/01/28 08:03:28;;;;;;;3.25;2.47;;;4.10;99.90;;;;;;6218373;23;20000;-75
2023/01/28 08:05:55;;;;;;;4.32;2.40;;;4.10;99.90;;;;;;6219006;23;20422;-76
2023/01/28 08:08:25;;;;;;;2.90;2.30;;;4.10;99.90;;;;;;6220396;23;19996;-75
2023/01/28 08:10:51;;;;;;;3.25;2.28;;;4.10;99.90;;;;;;6218774;23;20012;-76
2023/01/28 08:13:18;;;;;;;3.85;2.63;;;4.10;99.90;;;;;;6218994;23;20330;-76
2023/01/28 08:15:44;;;;;;;3.20;2.30;;;4.10;99.90;;;;;;6218778;23;20005;-75
2023/01/28 08:18:12;;;;;;;3.20;2.42;;;4.10;99.90;;;;;;6220084;23;20007;-76
2023/01/28 08:20:38;;;;;;;4.40;2.40;;;4.10;99.90;;;;;;6219983;23;20012;-76
2023/01/28 08:23:17;;;;;;;3.40;2.65;;;4.20;99.90;;;;;;6220657;23;20410;-76
2023/01/28 08:25:44;;;;;;;3.50;2.70;;;4.10;99.90;;;;;;6219059;23;20020;-76
2023/01/28 08:28:11;;;;;;;3.13;2.63;;;4.10;99.90;;;;;;6217791;23;20008;-76
2023/01/28 08:30:37;;;;;;;4.15;2.65;;;4.10;99.90;;;;;;6219602;23;20023;-76
2023/01/28 08:33:04;;;;;;;3.53;2.65;;;4.10;99.90;;;;;;6219982;23;20008;-76
2023/01/28 08:35:32;;;;;;;3.90;2.80;;;4.10;99.90;;;;;;6219628;23;20028;-75
2023/01/28 08:37:59;;;;;;;4.07;2.95;;;4.20;99.90;;;;;;6219210;23;20389;-76
2023/01/28 08:40:25;;;;;;;3.28;2.70;;;4.20;99.90;;;;;;6219543;23;20055;-76
2023/01/28 08:42:52;;;;;;;3.28;2.95;;;4.20;99.90;;;;;;6219247;23;20028;-76
2023/01/28 08:45:21;;;;;;;4.55;2.53;;;4.20;99.90;;;;;;6218710;23;20001;-76
2023/01/28 08:47:58;;;;;;;3.35;2.88;;;4.20;99.90;;;;;;6217634;23;20460;-76
2023/01/28 08:50:26;;;;;;;3.20;2.67;;;4.30;99.90;;;;;;6218476;23;20001;-69
2023/01/28 08:52:56;;;;;;;3.60;3.05;;;4.30;99.90;;;;;;6217345;23;20035;-69
2023/01/28 08:55:22;;;;;;;3.05;2.63;;;4.30;99.90;;;;;;6219539;23;20004;-69
2023/01/28 08:57:48;;;;;;;4.10;2.92;;;4.40;99.90;;;;;;6220012;23;20329;-70
2023/01/28 09:00:14;;;;;;;4.90;3.70;;;4.40;99.90;;;;;;6218145;23;20008;-70
2023/01/28 09:02:40;;;;;;;3.25;2.58;;;4.50;99.90;;;;;;6219814;23;20051;-70
2023/01/28 09:05:07;;;;;;;3.60;2.83;;;4.50;99.90;;;;;;6218687;23;20462;-68
2023/01/28 09:07:34;;;;;;;3.53;3.00;;;4.60;99.90;;;;;;6220600;23;20322;-69
2023/01/28 09:10:00;;;;;;;4.50;3.50;;;4.50;99.90;;;;;;6220615;23;20068;-69
2023/01/28 09:12:26;;;;;;;4.28;3.63;;;4.50;99.90;;;;;;6221309;23;20383;-73
2023/01/28 09:14:52;;;;;;;5.65;3.85;;;4.50;99.90;;;;;;6221721;23;20456;-73
2023/01/28 09:17:19;;;;;;;5.03;3.22;;;4.50;99.90;;;;;;6221749;23;20341;-75
2023/01/28 09:19:44;;;;;;;4.78;3.35;;;4.50;99.90;;;;;;6221439;23;20000;-73
2023/01/28 09:22:10;;;;;;;4.78;3.80;;;4.50;99.90;;;;;;6221586;23;20460;-73
2023/01/28 09:24:36;;;;;;;5.00;3.97;;;4.50;99.90;;;;;;6221357;23;20089;-72
2023/01/28 09:27:01;;;;;;;5.13;3.72;;;4.50;99.90;;;;;;6221628;23;20011;-72
2023/01/28 09:29:27;;;;;;;4.20;3.30;;;4.50;99.90;;;;;;6219523;23;20067;-72
2023/01/28 09:31:53;;;;;;;3.90;3.35;;;4.60;99.90;;;;;;6219961;23;20031;-73
2023/01/28 09:34:19;;;;;;;4.97;3.50;;;4.60;99.90;;;;;;6221286;23;20384;-73
2023/01/28 09:36:45;;;;;;;5.00;3.80;;;4.60;99.90;;;;;;6221247;23;20005;-73
2023/01/28 09:39:10;;;;;;;4.28;3.03;;;4.70;99.90;;;;;;6219567;23;20012;-69
2023/01/28 09:41:59;;;;;;;4.80;3.72;;;4.70;99.90;;;;;;6221615;23;20012;-69
2023/01/28 09:44:43;;;;;;;5.65;3.90;;;4.70;99.90;;;;;;6192262;23;20076;-70
2023/01/28 09:47:20;;;;;;;3.80;3.08;;;4.70;99.90;;;;;;6221318;23;20004;-70
2023/01/28 09:49:49;;;;;;;5.13;3.80;;;4.90;99.90;;;;;;6219359;23;20001;-70
2023/01/28 09:52:20;;;;;;;4.13;3.50;;;5.00;99.90;;;;;;6221493;23;20009;-70
2023/01/28 09:54:55;;;;;;;5.72;3.53;;;5.00;99.90;;;;;;6221395;23;20064;-70
2023/01/28 09:57:38;;;;;;;3.55;3.05;;;5.10;99.90;;;;;;6221349;23;20076;-71
2023/01/28 10:00:44;;;;;;;3.90;3.15;;;5.10;99.90;;;;;;6221371;23;20032;-69
2023/01/28 10:03:25;;;;;;;4.07;3.28;;;5.20;99.90;;;;;;6220595;23;20008;-71
2023/01/28 10:06:08;;;;;;;4.65;3.38;;;5.30;99.90;;;;;;6221401;23;20115;-71
2023/01/28 10:09:07;;;;;;;4.43;3.03;;;5.30;99.90;;;;;;6221277;23;20005;-72
2023/01/28 10:11:48;;;;;;;4.25;3.50;;;5.40;99.90;;;;;;6221422;23;20012;-72
2023/01/28 10:14:16;;;;;;;5.00;4.30;;;5.40;99.90;;;;;;6221254;23;20007;-72
2023/01/28 10:16:57;;;;;;;4.93;3.45;;;5.50;99.90;;;;;;6221154;23;20001;-72
2023/01/28 10:19:33;;;;;;;4.82;3.60;;;5.50;99.90;;;;;;6219027;23;20058;-72
2023/01/28 10:22:08;;;;;;;4.05;3.53;;;5.60;99.90;;;;;;6221250;23;20000;-71
2023/01/28 10:24:37;;;;;;;5.60;4.28;;;5.60;99.90;;;;;;6219303;23;20005;-71
2023/01/28 10:27:16;;;;;;;5.10;4.00;;;5.60;99.90;;;;;;6221160;23;20095;-71
2023/01/28 10:29:44;;;;;;;4.60;3.55;;;5.60;99.90;;;;;;6220716;23;20020;-71
2023/01/28 10:32:28;;;;;;;4.50;3.38;;;5.60;99.90;;;;;;6221011;23;20001;-72
2023/01/28 10:34:55;;;;;;;3.67;3.15;;;5.70;99.90;;;;;;6220821;23;20005;-70
2023/01/28 10:37:20;;;;;;;4.15;3.30;;;5.70;99.90;;;;;;6220917;23;20311;-69
2023/01/28 10:39:46;;;;;;;3.53;2.90;;;5.70;99.90;;;;;;6221069;23;20065;-68
2023/01/28 10:42:19;;;;;;;3.00;2.70;;;5.70;99.90;;;;;;6214998;23;20135;-69
2023/01/28 10:44:47;;;;;;;3.67;2.83;;;5.70;99.90;;;;;;6218046;23;20004;-69
2023/01/28 10:47:18;;;;;;;3.22;2.60;;;5.70;99.90;;;;;;6218222;23;20005;-69
2023/01/28 10:49:50;;;;;;;4.40;2.80;;;5.80;99.90;;;;;;6220161;23;20001;-69
2023/01/28 10:52:17;;;;;;;2.92;2.63;;;5.80;99.90;;;;;;6218616;23;20528;-69
2023/01/28 10:54:43;;;;;;;3.20;2.58;;;5.90;99.90;;;;;;6220840;23;20005;-69
2023/01/28 10:57:17;;;;;;;3.88;2.55;;;5.90;99.90;;;;;;6220850;23;20104;-69
2023/01/28 10:59:44;;;;;;;3.97;2.70;;;5.90;99.90;;;;;;6220636;23;20028;-69
2023/01/28 11:02:25;;;;;;;2.90;2.53;;;6.00;99.90;;;;;;6220607;23;20007;-69
2023/01/28 11:05:03;;;;;;;3.17;2.67;;;6.00;99.90;;;;;;6220469;23;20001;-69
2023/01/28 11:07:29;;;;;;;3.42;2.85;;;6.00;99.90;;;;;;6220773;23;19997;-69
2023/01/28 11:09:54;;;;;;;3.13;2.70;;;6.00;99.90;;;;;;6220641;23;20003;-69
2023/01/28 11:12:26;;;;;;;3.45;2.72;;;6.00;99.90;;;;;;6220726;23;20007;-69
2023/01/28 11:15:16;;;;;;;2.88;2.58;;;6.00;99.90;;;;;;6220829;23;20004;-69
2023/01/28 11:17:50;;;;;;;3.08;2.45;;;6.10;99.90;;;;;;6220590;23;20060;-69
2023/01/28 11:20:21;;;;;;;3.30;2.55;;;6.10;99.90;;;;;;6218471;23;20004;-69
2023/01/28 11:22:47;;;;;;;3.72;2.60;;;6.10;99.90;;;;;;6220719;23;20028;-69
2023/01/28 11:25:24;;;;;;;3.72;2.70;;;6.20;99.90;;;;;;6220342;23;20319;-69
2023/01/28 11:27:52;;;;;;;2.53;2.33;;;6.20;99.90;;;;;;6220287;23;20429;-69
2023/01/28 11:30:27;;;;;;;4.57;2.90;;;6.30;99.90;;;;;;6213611;23;20020;-69
2023/01/28 11:33:04;;;;;;;2.97;2.50;;;6.30;99.90;;;;;;6216468;23;20028;-68
2023/01/28 11:35:30;;;;;;;3.38;2.40;;;6.30;99.90;;;;;;6219593;23;20071;-70
2023/01/28 11:38:00;;;;;;;2.90;2.42;;;6.30;99.90;;;;;;6218587;23;20028;-69
2023/01/28 11:40:26;;;;;;;2.50;2.05;;;6.30;99.90;;;;;;6218375;23;20423;-70
2023/01/28 11:42:56;;;;;;;3.50;2.38;;;6.30;99.90;;;;;;6219996;23;20001;-72
2023/01/28 11:45:36;;;;;;;3.25;2.20;;;6.30;99.90;;;;;;6219724;23;20079;-69
2023/01/28 11:48:50;;;;;;;2.22;2.00;;;6.30;99.90;;;;;;6218238;23;20001;-69
2023/01/28 11:51:43;;;;;;;1.90;1.70;;;6.20;99.90;;;;;;6185930;23;20012;-70
2023/01/28 11:54:39;;;;;;;1.63;1.47;;;6.30;99.90;;;;;;6219379;23;20333;-69
2023/01/28 11:57:23;;;;;;;2.63;1.40;;;6.30;99.90;;;;;;6218254;23;20315;-70
2023/01/28 12:00:26;;;;;;;1.80;1.60;;;6.30;99.90;;;;;;6220477;23;20016;-69
2023/01/28 12:03:14;;;;;;;2.65;1.95;;;6.30;99.90;;;;;;6220241;23;20004;-69
2023/01/28 12:05:42;;;;;;;2.67;1.70;;;6.30;99.90;;;;;;6219222;23;20012;-69
2023/01/28 12:08:12;;;;;;;2.08;1.38;;;6.30;99.90;;;;;;6218472;23;20405;-70
2023/01/28 12:11:18;;;;;;;1.63;1.30;;;6.40;99.90;;;;;;6221744;23;20001;-75
2023/01/28 12:13:56;;;;;;;1.20;1.10;;;6.50;99.90;;;;;;6202251;23;20012;-73
2023/01/28 12:16:37;;;;;;;2.00;1.30;;;6.50;99.90;;;;;;6219201;23;20374;-68
2023/01/28 12:19:11;;;;;;;2.00;0.90;;;6.50;99.90;;;;;;6220057;23;20001;-69
2023/01/28 12:21:58;;;;;;;1.42;1.00;;;6.40;99.90;;;;;;6219263;23;20005;-69
2023/01/28 12:24:48;;;;;;;2.00;1.25;;;6.40;99.90;;;;;;6217642;23;20112;-69
2023/01/28 12:27:39;;;;;;;1.50;1.05;;;6.40;99.90;;;;;;6218224;23;20099;-69
2023/01/28 12:30:05;;;;;;;1.35;1.10;;;6.50;99.90;;;;;;6220168;23;20012;-69
2023/01/28 12:32:43;;;;;;;2.95;1.00;;;6.50;99.90;;;;;;6218945;23;20004;-69
2023/01/28 12:35:43;;;;;;;2.30;1.30;;;6.50;99.90;;;;;;6218236;23;20005;-69
2023/01/28 12:38:37;;;;;;;1.25;0.95;;;6.40;99.90;;;;;;6220051;23;20001;-69
2023/01/28 12:41:22;;;;;;;1.83;0.98;;;6.40;99.90;;;;;;6218315;23;20031;-69
2023/01/28 12:44:06;;;;;;;2.70;0.95;;;6.40;99.90;;;;;;6220049;23;20007;-69
2023/01/28 12:46:42;;;;;;;0.93;0.77;;;6.40;99.90;;;;;;6220096;23;20025;-69
2023/01/28 12:49:20;;;;;;;1.83;1.00;;;6.50;99.90;;;;;;6219871;23;20051;-69
2023/01/28 12:51:45;;;;;;;3.33;1.00;;;6.50;99.90;;;;;;6220347;23;20004;-69
2023/01/28 12:54:26;;;;;;;1.48;0.90;;;6.50;99.90;;;;;;6220553;23;20011;-69
2023/01/28 12:56:53;;;;;;;1.92;1.00;;;6.60;99.90;;;;;;6221668;23;20011;-69
2023/01/28 12:59:34;;;;;;;2.05;0.98;;;6.60;99.90;;;;;;6222123;23;20004;-73
2023/01/28 13:02:12;;;;;;;2.47;1.00;;;6.60;99.90;;;;;;6219830;23;20008;-71
2023/01/28 13:04:48;;;;;;;1.80;0.98;;;6.60;99.90;;;;;;6221757;23;20024;-74
2023/01/28 13:07:26;;;;;;;3.05;1.20;;;6.60;99.90;;;;;;6221691;23;19997;-70
2023/01/28 13:10:17;;;;;;;1.48;0.98;;;6.50;99.90;;;;;;6222002;23;20001;-70
2023/01/28 13:12:44;;;;;;;1.38;1.00;;;6.50;99.90;;;;;;6221679;23;20031;-71
2023/01/28 13:15:13;;;;;;;1.25;0.98;;;6.50;99.90;;;;;;6220227;23;20005;-69
2023/01/28 13:17:40;;;;;;;1.77;1.25;;;6.50;99.90;;;;;;6219509;23;20008;-71
2023/01/28 13:20:16;;;;;;;1.30;0.90;;;6.50;99.90;;;;;;6220456;23;20096;-70
2023/01/28 13:22:44;;;;;;;2.25;1.15;;;6.50;99.90;;;;;;6221436;23;20001;-69
2023/01/28 13:25:26;;;;;;;1.35;0.90;;;6.50;99.90;;;;;;6221689;23;20054;-71
2023/01/28 13:28:05;;;;;;;1.38;1.17;;;6.60;99.90;;;;;;6219995;23;20504;-73
2023/01/28 13:30:46;;;;;;;2.03;1.13;;;6.60;99.90;;;;;;6221362;23;20023;-70
2023/01/28 13:33:37;;;;;;;2.40;1.20;;;6.70;99.90;;;;;;6220787;23;20031;-69
2023/01/28 13:36:18;;;;;;;1.73;1.17;;;6.70;99.90;;;;;;6221735;23;20011;-68
2023/01/28 13:38:45;;;;;;;2.17;1.10;;;6.70;99.90;;;;;;6222254;23;19997;-67
2023/01/28 13:41:11;;;;;;;2.13;1.10;;;6.80;99.90;;;;;;6221827;23;20004;-67
2023/01/28 13:43:40;;;;;;;1.50;0.93;;;6.80;99.90;;;;;;6223592;23;20022;-67
2023/01/28 13:46:11;;;;;;;1.30;1.00;;;6.90;99.90;;;;;;6223359;23;20020;-67
2023/01/28 13:48:53;;;;;;;1.55;1.00;;;6.90;99.90;;;;;;6219947;23;20016;-69